This is the latest recevied weather packets stored in our database for station/object KE8RXN. If no packets are shown the sender has not sent any weather packets the latest 10 day(s).
| Time | Temp. | Humidity | Pressure | Rain* | Wind** | Luminosity | Snow |
|---|---|---|---|---|---|---|---|
| 1777583194 | 10.56° C | 46% | 1018.4 hPa | 0 mm | - | 147 W/m² | - |
| 1777582889 | 9.44° C | 49% | 1018.5 hPa | 0 mm | - | 268 W/m² | - |
| 1777582587 | 10.56° C | 49% | 1018.5 hPa | 0 mm | - | 156 W/m² | - |
| 1777582282 | 11.11° C | 47% | 1018.5 hPa | 0 mm | - | 168 W/m² | - |
| 1777581980 | 11.67° C | 45% | 1018.5 hPa | 0 mm | - | 317 W/m² | - |
| 1777581675 | 11.67° C | 46% | 1018.5 hPa | 0 mm | - | 601 W/m² | - |
| 1777581369 | 11.67° C | 47% | 1018.4 hPa | 0 mm | - | 597 W/m² | - |
| 1777581064 | 11.67° C | 48% | 1018.6 hPa | 0 mm | - | 586 W/m² | - |
| 1777580763 | 11.67° C | 47% | 1018.5 hPa | 0 mm | - | 576 W/m² | - |
| 1777580459 | 12.22° C | 46% | 1018.5 hPa | 0 mm | - | 615 W/m² | - |
| 1777580154 | 11.67° C | 45% | 1018.4 hPa | 0 mm | - | 603 W/m² | - |
| 1777579851 | 11.67° C | 46% | 1018.4 hPa | 0 mm | - | 556 W/m² | - |
| 1777579549 | 12.22° C | 44% | 1018.6 hPa | 0 mm | - | 558 W/m² | - |
| 1777579244 | 12.22° C | 44% | 1018.4 hPa | 0 mm | - | 595 W/m² | - |
| 1777578940 | 11.67° C | 46% | 1018.5 hPa | 0 mm | - | 583 W/m² | - |
| 1777578636 | 12.22° C | 44% | 1018.6 hPa | 0 mm | - | 730 W/m² | - |
| 1777578335 | 12.22° C | 44% | 1018.7 hPa | 0 mm | - | 723 W/m² | - |
| 1777578032 | 11.67° C | 45% | 1018.6 hPa | 0 mm | - | 660 W/m² | - |
| 1777577727 | 11.67° C | 45% | 1018.8 hPa | 0 mm | - | 726 W/m² | - |
| 1777577424 | 11.67° C | 47% | 1018.6 hPa | 0 mm | - | 724 W/m² | - |
| 1777577121 | 11.67° C | 46% | 1018.5 hPa | 0 mm | - | 688 W/m² | - |
| 1777576816 | 11.67° C | 45% | 1018.7 hPa | 0 mm | - | 705 W/m² | - |
| 1777576516 | 11.67° C | 44% | 1018.6 hPa | 0 mm | - | 709 W/m² | - |
| 1777576213 | 11.67° C | 42% | 1018.6 hPa | 0 mm | - | 631 W/m² | - |
| 1777575908 | 11.67° C | 44% | 1018.7 hPa | 0 mm | - | 762 W/m² | - |
* Rain latest hour (hover to see other rain measurements)
** Current wind speed in m/s (hover to see current wind gust speed)